createdAt,value
2019-01-05T00:01:32.238Z,4.00
2019-01-05T00:04:17.613Z,3.90
2019-01-05T00:07:02.222Z,3.90
2019-01-05T00:09:47.074Z,4.00
2019-01-05T00:12:29.895Z,4.10
2019-01-05T00:15:15.475Z,4.10
2019-01-05T00:21:05.542Z,4.10
2019-01-05T00:24:05.841Z,4.10
2019-01-05T00:27:06.086Z,4.10
2019-01-05T00:35:52.637Z,4.10
2019-01-05T00:38:52.895Z,4.20
2019-01-05T00:41:53.085Z,4.20
2019-01-05T00:44:53.475Z,4.20
2019-01-05T00:47:53.635Z,4.10
2019-01-05T00:50:53.814Z,4.00
2019-01-05T00:53:54.374Z,4.10
2019-01-05T00:59:42.286Z,4.20
2019-01-05T01:02:42.262Z,4.20
2019-01-05T01:05:27.890Z,4.20
2019-01-05T01:08:13.103Z,4.20
2019-01-05T01:11:13.198Z,4.20
2019-01-05T01:14:14.142Z,4.20
2019-01-05T01:20:07.155Z,4.20
2019-01-05T01:22:49.465Z,4.10
2019-01-05T01:25:32.182Z,4.20
2019-01-05T01:31:20.326Z,4.30
2019-01-05T01:37:22.890Z,4.30
2019-01-05T01:40:07.790Z,4.30
2019-01-05T01:43:07.957Z,4.30
2019-01-05T01:46:08.859Z,4.30
2019-01-05T01:52:12.386Z,4.30
2019-01-05T01:58:15.283Z,4.30
2019-01-05T02:00:57.867Z,4.30
2019-01-05T02:03:40.292Z,4.20
2019-01-05T02:09:30.194Z,4.30
2019-01-05T02:12:15.798Z,4.30
2019-01-05T02:18:24.154Z,4.40
2019-01-05T02:21:06.842Z,4.30
2019-01-05T02:23:49.616Z,4.40
2019-01-05T02:26:49.404Z,4.40
2019-01-05T02:29:50.182Z,4.40
2019-01-05T02:32:32.126Z,4.40
2019-01-05T02:35:14.477Z,4.40
2019-01-05T02:37:57.240Z,4.40
2019-01-05T02:40:57.247Z,4.40
2019-01-05T02:43:57.297Z,4.50
2019-01-05T02:49:51.554Z,4.50
2019-01-05T02:55:39.742Z,4.50
2019-01-05T02:58:39.831Z,4.40
2019-01-05T03:01:25.078Z,4.40
2019-01-05T03:04:10.453Z,4.50
2019-01-05T03:10:00.795Z,4.40
2019-01-05T03:13:01.034Z,4.50
2019-01-05T03:16:01.345Z,4.50
2019-01-05T03:18:43.442Z,4.50
2019-01-05T03:24:37.123Z,4.60
2019-01-05T03:27:22.655Z,4.60
2019-01-05T03:30:07.806Z,4.60
2019-01-05T03:33:08.197Z,4.60
2019-01-05T03:36:08.628Z,4.60
2019-01-05T03:38:51.127Z,4.60
2019-01-05T03:41:33.711Z,4.60
2019-01-05T03:44:15.729Z,4.70
2019-01-05T03:49:54.594Z,4.70
2019-01-05T03:52:54.822Z,4.70
2019-01-05T03:55:37.074Z,4.70
2019-01-05T03:58:19.870Z,4.70
2019-01-05T04:01:20.044Z,4.70
2019-01-05T04:04:02.858Z,4.70
2019-01-05T04:07:02.971Z,4.70
2019-01-05T04:10:03.071Z,4.70
2019-01-05T04:15:56.990Z,4.70
2019-01-05T04:18:41.997Z,4.70
2019-01-05T04:24:29.666Z,4.80
2019-01-05T04:30:19.907Z,4.80
2019-01-05T04:36:27.879Z,4.80
2019-01-05T04:39:13.296Z,4.80
2019-01-05T04:45:21.246Z,4.80
2019-01-05T04:48:21.806Z,4.80
2019-01-05T04:54:07.629Z,4.90
2019-01-05T04:59:43.611Z,4.90
2019-01-05T05:02:25.897Z,4.90
2019-01-05T05:08:16.077Z,5.00
2019-01-05T05:11:16.469Z,5.00
2019-01-05T05:14:17.222Z,5.00
2019-01-05T05:20:05.250Z,5.00
2019-01-05T05:23:05.978Z,5.10
2019-01-05T05:25:50.662Z,5.00
2019-01-05T05:28:51.152Z,5.00
2019-01-05T05:31:36.019Z,5.10
2019-01-05T05:34:18.727Z,5.10
2019-01-05T05:37:18.734Z,5.10
2019-01-05T05:40:00.818Z,5.20
2019-01-05T05:43:00.943Z,5.20
2019-01-05T05:46:01.642Z,5.20
2019-01-05T05:48:47.390Z,5.20
2019-01-05T05:51:47.595Z,5.20
2019-01-05T05:57:50.513Z,5.20
2019-01-05T06:00:59.311Z,5.20
2019-01-05T06:07:39.709Z,5.30
2019-01-05T06:11:06.026Z,5.30
2019-01-05T06:14:14.554Z,5.30
2019-01-05T06:17:40.867Z,5.40
2019-01-05T06:21:07.198Z,5.40
2019-01-05T06:24:15.946Z,5.40
2019-01-05T06:27:42.278Z,5.40
2019-01-05T06:31:08.576Z,5.40
2019-01-05T06:34:17.101Z,5.50
2019-01-05T06:41:11.277Z,5.50
2019-01-05T06:47:18.446Z,5.60
2019-01-05T06:50:01.271Z,5.60
2019-01-05T06:53:01.597Z,5.60
2019-01-05T06:55:46.346Z,5.60
2019-01-05T06:58:31.389Z,5.70
2019-01-05T07:01:31.558Z,5.70
2019-01-05T07:04:32.154Z,5.70
2019-01-05T07:10:22.010Z,5.80
2019-01-05T07:13:22.007Z,5.80
2019-01-05T07:16:22.706Z,5.80
2019-01-05T07:22:08.005Z,5.90
2019-01-05T07:24:50.142Z,5.90
2019-01-05T07:27:35.570Z,5.90
2019-01-05T07:30:21.006Z,5.90
2019-01-05T07:33:21.372Z,6.00
2019-01-05T07:39:09.329Z,5.90
2019-01-05T07:42:09.675Z,6.00
2019-01-05T07:44:54.665Z,6.00
2019-01-05T07:47:37.290Z,6.00
2019-01-05T07:50:37.694Z,6.00
2019-01-05T07:53:38.081Z,6.00
2019-01-05T07:59:23.169Z,6.00
2019-01-05T08:02:23.087Z,6.00
2019-01-05T08:05:05.190Z,6.00
2019-01-05T08:11:09.375Z,6.00
2019-01-05T08:17:01.691Z,6.00
2019-01-05T08:25:59.782Z,6.10
2019-01-05T08:28:59.839Z,6.10
2019-01-05T08:31:44.705Z,6.10
2019-01-05T08:34:30.356Z,6.10
2019-01-05T08:37:15.523Z,6.20
2019-01-05T08:39:57.547Z,6.10
2019-01-05T08:45:45.809Z,6.20
2019-01-05T08:48:31.265Z,6.20
2019-01-05T08:51:13.205Z,6.20
2019-01-05T08:57:07.614Z,6.20
2019-01-05T08:59:50.274Z,6.20
2019-01-05T09:02:50.430Z,6.20
2019-01-05T09:05:50.394Z,6.30
2019-01-05T09:11:53.963Z,6.30
2019-01-05T09:17:56.979Z,6.30
2019-01-05T09:20:42.046Z,6.30
2019-01-05T09:23:27.165Z,6.30
2019-01-05T09:26:27.705Z,6.30
2019-01-05T09:32:07.176Z,6.40
2019-01-05T09:35:07.495Z,6.40
2019-01-05T09:38:08.578Z,6.40
2019-01-05T09:40:51.158Z,6.40
2019-01-05T09:43:36.330Z,6.50
2019-01-05T09:46:18.778Z,6.40
2019-01-05T09:49:19.090Z,6.50
2019-01-05T09:52:04.691Z,6.50
2019-01-05T09:55:05.054Z,6.50
2019-01-05T09:57:47.637Z,6.50
2019-01-05T10:00:33.135Z,6.50
2019-01-05T10:06:41.681Z,6.50
2019-01-05T10:09:42.389Z,6.50
2019-01-05T10:12:42.790Z,6.50
2019-01-05T10:15:24.839Z,6.50
2019-01-05T10:21:27.866Z,6.50
2019-01-05T10:27:17.022Z,6.60
2019-01-05T10:30:02.428Z,6.60
2019-01-05T10:33:02.854Z,6.60
2019-01-05T10:35:45.645Z,6.60
2019-01-05T10:38:28.138Z,6.60
2019-01-05T10:44:16.442Z,6.60
2019-01-05T10:46:59.116Z,6.60
2019-01-05T10:49:58.996Z,6.60
2019-01-05T10:55:46.962Z,6.60
2019-01-05T10:58:32.221Z,6.60
2019-01-05T11:01:32.766Z,6.60
2019-01-05T11:04:15.669Z,6.70
2019-01-05T11:13:04.850Z,6.70
2019-01-05T11:16:05.119Z,6.60
2019-01-05T11:18:50.085Z,6.70
2019-01-05T11:21:32.807Z,6.70
2019-01-05T11:24:33.043Z,6.70
2019-01-05T11:30:18.337Z,6.70
2019-01-05T11:33:18.654Z,6.70
2019-01-05T11:36:04.075Z,6.70
2019-01-05T11:39:04.918Z,6.70
2019-01-05T11:44:59.258Z,6.80
2019-01-05T11:47:43.952Z,6.70
2019-01-05T11:50:44.311Z,6.70
2019-01-05T11:53:44.897Z,6.80
2019-01-05T11:56:53.434Z,6.80
2019-01-05T12:00:19.743Z,6.80
2019-01-05T12:03:46.106Z,6.80
2019-01-05T12:07:12.430Z,6.80
2019-01-05T12:10:38.745Z,6.80
2019-01-05T12:13:47.303Z,6.80
2019-01-05T12:17:13.651Z,6.80
2019-01-05T12:20:39.959Z,6.80
2019-01-05T12:23:48.496Z,6.80
2019-01-05T12:27:14.834Z,6.80
2019-01-05T12:30:23.625Z,6.80
2019-01-05T12:33:49.947Z,6.80
2019-01-05T12:37:16.294Z,6.80
2019-01-05T12:40:24.921Z,6.80
2019-01-05T12:43:51.259Z,6.80
2019-01-05T12:49:39.418Z,6.80
2019-01-05T12:55:27.222Z,6.80
2019-01-05T12:58:11.831Z,6.70
2019-01-05T13:01:12.309Z,6.80
2019-01-05T13:03:54.290Z,6.80
2019-01-05T13:09:48.231Z,6.80
2019-01-05T13:12:30.228Z,6.80
2019-01-05T13:15:30.575Z,6.80
2019-01-05T13:21:20.146Z,6.90
2019-01-05T13:24:20.307Z,6.90
2019-01-05T13:27:20.856Z,6.90
2019-01-05T13:30:21.670Z,6.90
2019-01-05T13:33:22.403Z,6.80
2019-01-05T13:36:04.276Z,6.90
2019-01-05T13:38:46.938Z,6.90
2019-01-05T13:41:47.246Z,6.90
2019-01-05T13:44:31.870Z,6.80
2019-01-05T13:47:32.591Z,6.90
2019-01-05T13:50:18.047Z,6.90
2019-01-05T13:53:18.619Z,6.90
2019-01-05T13:59:03.775Z,6.90
2019-01-05T14:05:06.980Z,6.80
2019-01-05T14:10:39.956Z,6.80
2019-01-05T14:13:47.031Z,6.80
2019-01-05T14:16:54.106Z,6.90
2019-01-05T14:20:01.168Z,6.80
2019-01-05T14:26:03.053Z,6.80
2019-01-05T14:32:05.314Z,6.80
2019-01-05T14:35:12.398Z,6.80
2019-01-05T14:38:19.455Z,6.80
2019-01-05T14:41:26.530Z,6.80
2019-01-05T14:44:33.615Z,6.80
2019-01-05T14:47:16.209Z,6.80
2019-01-05T14:49:58.762Z,6.80
2019-01-05T14:55:48.566Z,6.80
2019-01-05T14:58:48.734Z,6.80
2019-01-05T15:01:49.148Z,6.80
2019-01-05T15:04:49.524Z,6.80
2019-01-05T15:07:35.328Z,6.80
2019-01-05T15:13:38.552Z,6.80
2019-01-05T15:16:38.830Z,6.80
2019-01-05T15:19:39.543Z,6.70
2019-01-05T15:22:22.354Z,6.70
2019-01-05T15:25:04.905Z,6.70
2019-01-05T15:28:05.703Z,6.70
2019-01-05T15:30:51.178Z,6.70
2019-01-05T15:36:54.287Z,6.70
2019-01-05T15:42:39.522Z,6.70
2019-01-05T15:48:32.531Z,6.70
2019-01-05T15:51:32.851Z,6.70
2019-01-05T15:54:33.230Z,6.60
2019-01-05T15:57:18.810Z,6.60
2019-01-05T16:00:18.977Z,6.70
2019-01-05T16:03:19.172Z,6.70
2019-01-05T16:06:20.323Z,6.70
2019-01-05T16:12:05.876Z,6.70
2019-01-05T16:14:48.718Z,6.60
2019-01-05T16:17:49.064Z,6.50
2019-01-05T16:23:42.782Z,6.70
2019-01-05T16:29:50.395Z,6.70
2019-01-05T16:32:50.602Z,6.60
2019-01-05T16:38:30.114Z,6.60
2019-01-05T16:41:30.062Z,6.60
2019-01-05T16:44:30.437Z,6.60
2019-01-05T16:47:30.738Z,6.60
2019-01-05T16:50:13.522Z,6.60
2019-01-05T16:53:13.722Z,6.60
2019-01-05T16:55:55.625Z,6.60
2019-01-05T16:58:55.962Z,6.60
2019-01-05T17:01:37.931Z,6.60
2019-01-05T17:04:38.240Z,6.60
2019-01-05T17:10:30.905Z,6.50
2019-01-05T17:13:13.634Z,6.50
2019-01-05T17:21:43.594Z,6.40
2019-01-05T17:24:43.663Z,6.40
2019-01-05T17:27:29.602Z,6.40
2019-01-05T17:30:29.460Z,6.50
2019-01-05T17:33:11.416Z,6.40
2019-01-05T17:36:11.562Z,6.30
2019-01-05T17:42:06.075Z,6.40
2019-01-05T17:48:10.359Z,6.40
2019-01-05T17:51:10.775Z,6.40
2019-01-05T17:54:11.150Z,6.40
2019-01-05T17:57:11.883Z,6.40
2019-01-05T17:59:53.855Z,6.40
2019-01-05T18:02:39.492Z,6.40
2019-01-05T18:05:22.154Z,6.40
2019-01-05T18:08:22.307Z,6.40
2019-01-05T18:11:22.512Z,6.40
2019-01-05T18:14:23.212Z,6.40
2019-01-05T18:17:05.652Z,6.30
2019-01-05T18:20:05.836Z,6.40
2019-01-05T18:23:06.032Z,6.40
2019-01-05T18:25:48.370Z,6.40
2019-01-05T18:28:31.013Z,6.30
2019-01-05T18:31:31.200Z,6.30
2019-01-05T18:37:38.804Z,6.30
2019-01-05T18:40:39.157Z,6.30
2019-01-05T18:43:24.143Z,6.30
2019-01-05T18:49:03.883Z,6.30
2019-01-05T18:55:11.714Z,6.30
2019-01-05T18:57:54.459Z,6.30
2019-01-05T19:00:55.525Z,6.30
2019-01-05T19:03:37.528Z,6.30
2019-01-05T19:06:22.754Z,6.30
2019-01-05T19:09:23.104Z,6.30
2019-01-05T19:12:23.200Z,6.30
2019-01-05T19:15:23.850Z,6.30
2019-01-05T19:18:24.173Z,6.30
2019-01-05T19:21:09.554Z,6.40
2019-01-05T19:27:02.099Z,6.30
2019-01-05T19:29:48.071Z,6.30
2019-01-05T19:35:24.482Z,6.30
2019-01-05T19:41:18.801Z,6.30
2019-01-05T19:44:19.086Z,6.30
2019-01-05T19:50:21.799Z,6.30
2019-01-05T19:53:04.591Z,6.20
2019-01-05T19:58:59.178Z,6.30
2019-01-05T20:01:59.952Z,6.30
2019-01-05T20:04:42.695Z,6.30
2019-01-05T20:07:42.991Z,6.30
2019-01-05T20:10:25.818Z,6.30
2019-01-05T20:13:25.890Z,6.30
2019-01-05T20:16:10.465Z,6.30
2019-01-05T20:22:03.504Z,6.70
2019-01-05T20:24:45.609Z,6.20
2019-01-05T20:27:46.058Z,6.30
2019-01-05T20:30:28.206Z,6.20
2019-01-05T20:39:30.585Z,6.40
2019-01-05T20:42:16.422Z,6.30
2019-01-05T20:44:59.030Z,6.30
2019-01-05T20:50:51.623Z,6.40
2019-01-05T20:53:33.626Z,6.30
2019-01-05T20:56:33.999Z,6.30
2019-01-05T20:59:34.662Z,6.30
2019-01-05T21:05:28.156Z,6.30
2019-01-05T21:08:13.542Z,6.30
2019-01-05T21:11:13.848Z,6.30
2019-01-05T21:17:17.882Z,6.30
2019-01-05T21:20:18.232Z,6.30
2019-01-05T21:23:19.045Z,6.30
2019-01-05T21:29:08.873Z,6.30
2019-01-05T21:32:09.308Z,6.30
2019-01-05T21:35:09.879Z,6.30
2019-01-05T21:41:03.804Z,6.30
2019-01-05T21:44:04.239Z,6.40
2019-01-05T21:47:04.927Z,6.20
2019-01-05T21:53:12.687Z,6.30
2019-01-05T22:02:00.741Z,6.30
2019-01-05T22:07:46.102Z,6.30
2019-01-05T22:10:31.636Z,6.30
2019-01-05T22:16:16.742Z,6.30
2019-01-05T22:25:15.231Z,6.30
2019-01-05T22:28:15.823Z,6.30
2019-01-05T22:31:15.895Z,6.30
2019-01-05T22:34:00.605Z,6.30
2019-01-05T22:39:45.547Z,6.40
2019-01-05T22:42:31.121Z,6.30
2019-01-05T22:45:31.374Z,6.30
2019-01-05T22:51:20.554Z,6.30
2019-01-05T22:54:05.983Z,6.30
2019-01-05T22:56:51.670Z,6.30
2019-01-05T22:59:34.295Z,6.30
2019-01-05T23:02:34.710Z,6.40
2019-01-05T23:05:16.631Z,6.40
2019-01-05T23:11:10.296Z,6.40
2019-01-05T23:13:52.986Z,6.40
2019-01-05T23:16:53.363Z,6.40
2019-01-05T23:19:53.503Z,6.40
2019-01-05T23:28:34.784Z,6.30
2019-01-05T23:31:35.430Z,6.30
2019-01-05T23:37:38.141Z,6.30
2019-01-05T23:43:45.782Z,6.30
2019-01-05T23:46:46.620Z,6.30
2019-01-05T23:49:32.097Z,6.30
2019-01-05T23:52:17.142Z,6.30
2019-01-05T23:58:18.732Z,6.30
